createdAt,value
2019-04-03T00:00:20.553Z,99826.68
2019-04-03T00:06:26.854Z,99824.16
2019-04-03T00:12:32.631Z,99815.41
2019-04-03T00:18:39.175Z,99804.89
2019-04-03T00:24:45.023Z,99799.31
2019-04-03T00:30:52.967Z,99802.98
2019-04-03T00:36:59.306Z,99813.62
2019-04-03T00:43:05.067Z,99811.45
2019-04-03T00:49:10.831Z,99801.80
2019-04-03T00:55:17.502Z,99802.37
2019-04-03T01:01:24.733Z,99801.20
2019-04-03T01:07:31.044Z,99804.91
2019-04-03T01:13:37.417Z,99819.43
2019-04-03T01:19:43.482Z,99828.42
2019-04-03T01:25:49.561Z,99826.41
2019-04-03T01:31:55.340Z,99811.48
2019-04-03T01:38:01.135Z,99818.09
2019-04-03T01:44:07.517Z,99809.78
2019-04-03T01:50:13.983Z,99808.95
2019-04-03T01:56:19.915Z,99819.16
2019-04-03T02:02:25.864Z,99810.48
2019-04-03T02:08:31.792Z,99809.25
2019-04-03T02:14:38.082Z,99804.91
2019-04-03T02:20:43.915Z,99801.53
2019-04-03T02:26:49.673Z,99795.95
2019-04-03T02:32:56.863Z,99802.69
2019-04-03T02:39:09.337Z,99801.11
2019-04-03T02:45:16.524Z,99800.81
2019-04-03T02:51:22.346Z,99813.50
2019-04-03T02:57:28.798Z,99792.45
2019-04-03T03:03:34.679Z,99783.19
2019-04-03T03:09:45.552Z,99789.69
2019-04-03T03:15:50.350Z,99790.00
2019-04-03T03:22:00.696Z,99794.34
2019-04-03T03:28:07.312Z,99782.05
2019-04-03T03:34:13.553Z,99778.63
2019-04-03T03:40:19.506Z,99770.36
2019-04-03T03:46:27.774Z,99773.05
2019-04-03T03:52:36.695Z,99773.45
2019-04-03T03:58:45.906Z,99775.62
2019-04-03T04:04:51.410Z,99773.00
2019-04-03T04:10:59.559Z,99777.39
2019-04-03T04:17:08.848Z,99772.59
2019-04-03T04:23:14.278Z,99775.64
2019-04-03T04:29:21.026Z,99767.70
2019-04-03T04:35:27.374Z,99770.36
2019-04-03T04:41:33.645Z,99758.98
2019-04-03T04:47:39.443Z,99758.98
2019-04-03T04:53:45.247Z,99756.97
2019-04-03T04:59:51.085Z,99753.59
2019-04-03T05:05:58.305Z,99743.60
2019-04-03T05:12:04.484Z,99748.77
2019-04-03T05:18:10.228Z,99747.02
2019-04-03T05:24:17.869Z,99748.77
2019-04-03T05:30:36.500Z,99751.39
2019-04-03T05:36:42.713Z,99759.70
2019-04-03T05:42:49.345Z,99763.14
2019-04-03T05:48:55.706Z,99764.08
2019-04-03T05:55:01.592Z,99770.27
2019-04-03T06:01:10.595Z,99766.91
2019-04-03T06:07:17.472Z,99774.85
2019-04-03T06:13:24.194Z,99778.48
2019-04-03T06:19:30.409Z,99781.45
2019-04-03T06:25:37.058Z,99778.27
2019-04-03T06:31:42.871Z,99778.52
2019-04-03T06:37:48.668Z,99785.88
2019-04-03T06:43:54.712Z,99782.34
2019-04-03T06:50:00.442Z,99782.34
2019-04-03T06:56:08.700Z,99791.48
2019-04-03T07:02:13.858Z,99787.59
2019-04-03T07:08:30.114Z,99789.38
2019-04-03T07:14:27.727Z,99794.11
2019-04-03T07:20:33.988Z,99801.19
2019-04-03T07:26:40.685Z,99799.09
2019-04-03T07:32:46.431Z,99800.80
2019-04-03T07:38:52.278Z,99805.61
2019-04-03T07:44:58.181Z,99795.72
2019-04-03T07:51:04.202Z,99792.77
2019-04-03T07:57:10.669Z,99801.53
2019-04-03T08:03:20.332Z,99792.50
2019-04-03T08:09:24.839Z,99778.25
2019-04-03T08:15:30.907Z,99748.34
2019-04-03T08:21:37.013Z,99757.20
2019-04-03T08:27:42.954Z,99771.53
2019-04-03T08:33:49.660Z,99797.20
2019-04-03T08:39:57.661Z,99790.46
2019-04-03T08:46:03.351Z,99793.64
2019-04-03T08:52:09.321Z,99784.34
2019-04-03T08:58:15.401Z,99758.84
2019-04-03T09:04:22.094Z,99769.14
2019-04-03T09:10:29.890Z,99778.30
2019-04-03T09:16:41.956Z,99781.00
2019-04-03T09:22:47.929Z,99788.05
2019-04-03T09:28:53.943Z,99779.13
2019-04-03T09:35:01.337Z,99789.66
2019-04-03T09:41:07.625Z,99782.05
2019-04-03T09:47:13.945Z,99788.83
2019-04-03T09:53:19.907Z,99800.94
2019-04-03T09:59:25.686Z,99788.72
2019-04-03T10:05:31.710Z,99772.98
2019-04-03T10:11:39.238Z,99767.82
2019-04-03T10:17:46.425Z,99749.53
2019-04-03T10:23:52.596Z,99734.81
2019-04-03T10:29:58.505Z,99720.59
2019-04-03T10:36:05.155Z,99728.06
2019-04-03T10:42:11.295Z,99732.70
2019-04-03T10:48:17.799Z,99739.55
2019-04-03T10:54:25.082Z,99737.72
2019-04-03T11:00:31.988Z,99736.13
2019-04-03T11:06:38.029Z,99723.05
2019-04-03T11:12:44.291Z,99721.83
2019-04-03T11:18:58.987Z,99705.73
2019-04-03T11:24:57.779Z,99691.00
2019-04-03T11:31:05.044Z,99681.80
2019-04-03T11:37:10.994Z,99689.68
2019-04-03T11:43:18.892Z,99696.95
2019-04-03T11:49:24.819Z,99683.00
2019-04-03T11:55:30.970Z,99662.58
2019-04-03T12:01:37.416Z,99656.02
2019-04-03T12:07:43.750Z,99646.71
2019-04-03T12:13:49.833Z,99644.23
2019-04-03T12:19:55.796Z,99637.47
2019-04-03T12:26:03.804Z,99651.59
2019-04-03T12:32:10.400Z,99666.88
2019-04-03T12:38:16.240Z,99646.82
2019-04-03T12:44:22.653Z,99650.19
2019-04-03T12:50:28.853Z,99650.26
2019-04-03T12:56:35.997Z,99648.25
2019-04-03T13:02:42.440Z,99635.80
2019-04-03T13:08:49.509Z,99629.78
2019-04-03T13:14:56.087Z,99618.30
2019-04-03T13:21:02.144Z,99594.50
2019-04-03T13:27:08.040Z,99566.54
2019-04-03T13:33:16.564Z,99561.30
2019-04-03T13:39:21.481Z,99576.57
2019-04-03T13:45:27.264Z,99562.88
2019-04-03T13:51:33.167Z,99566.70
2019-04-03T13:57:38.934Z,99566.66
2019-04-03T14:03:44.806Z,99567.66
2019-04-03T14:09:54.783Z,99557.48
2019-04-03T14:15:58.772Z,99541.11
2019-04-03T14:22:05.206Z,99551.14
2019-04-03T14:28:11.184Z,99545.55
2019-04-03T14:34:17.134Z,99559.82
2019-04-03T14:40:22.987Z,99560.39
2019-04-03T14:46:29.163Z,99561.86
2019-04-03T14:52:35.282Z,99573.44
2019-04-03T14:58:41.536Z,99569.70
2019-04-03T15:04:47.409Z,99571.02
2019-04-03T15:10:53.586Z,99556.22
2019-04-03T15:16:59.724Z,99546.68
2019-04-03T15:23:06.002Z,99536.78
2019-04-03T15:29:12.206Z,99529.33
2019-04-03T15:35:18.785Z,99512.55
2019-04-03T15:41:27.775Z,99540.25
2019-04-03T15:47:36.510Z,99551.87
2019-04-03T15:53:39.741Z,99548.71
2019-04-03T15:59:45.744Z,99548.03
2019-04-03T16:05:51.956Z,99542.40
2019-04-03T16:12:00.242Z,99536.05
2019-04-03T16:18:07.127Z,99540.98
2019-04-03T16:24:14.003Z,99540.23
2019-04-03T16:30:20.014Z,99528.34
2019-04-03T16:36:25.820Z,99534.55
2019-04-03T16:42:32.185Z,99520.56
2019-04-03T16:48:39.237Z,99507.08
2019-04-03T16:54:46.308Z,99516.36
2019-04-03T17:01:05.738Z,99499.17
2019-04-03T17:07:11.985Z,99498.63
2019-04-03T17:13:18.894Z,99486.61
2019-04-03T17:19:27.236Z,99504.40
2019-04-03T17:25:44.520Z,99527.14
2019-04-03T17:31:40.568Z,99525.23
2019-04-03T17:37:46.330Z,99524.68
2019-04-03T17:43:52.361Z,99512.61
2019-04-03T17:49:59.815Z,99507.89
2019-04-03T17:56:05.888Z,99521.33
2019-04-03T18:02:12.006Z,99517.40
2019-04-03T18:08:21.232Z,99501.40
2019-04-03T18:14:27.221Z,99532.63
2019-04-03T18:20:34.655Z,99570.86
2019-04-03T18:26:44.808Z,99562.23
2019-04-03T18:32:59.120Z,99539.64
2019-04-03T18:39:09.706Z,99533.03
2019-04-03T18:45:24.929Z,99534.75
2019-04-03T18:51:23.824Z,99546.17
2019-04-03T18:57:32.860Z,99555.88
2019-04-03T19:03:38.684Z,99563.34
2019-04-03T19:09:44.505Z,99573.13
2019-04-03T19:15:50.414Z,99583.66
2019-04-03T19:21:56.187Z,99586.53
2019-04-03T19:28:04.027Z,99591.50
2019-04-03T19:34:10.145Z,99588.52
2019-04-03T19:40:16.483Z,99590.80
2019-04-03T19:46:22.834Z,99590.88
2019-04-03T19:52:29.184Z,99588.27
2019-04-03T19:58:34.974Z,99588.75
2019-04-03T20:04:40.760Z,99593.43
2019-04-03T20:10:49.128Z,99604.74
2019-04-03T20:16:54.996Z,99602.26
2019-04-03T20:23:00.874Z,99619.50
2019-04-03T20:29:07.824Z,99601.56
2019-04-03T20:35:17.962Z,99580.25
2019-04-03T20:41:23.336Z,99568.03
2019-04-03T20:47:29.225Z,99556.74
2019-04-03T20:53:35.277Z,99550.39
2019-04-03T20:59:42.949Z,99562.05
2019-04-03T21:05:49.295Z,99583.08
2019-04-03T21:11:55.545Z,99587.50
2019-04-03T21:18:01.497Z,99589.23
2019-04-03T21:24:07.486Z,99560.40
2019-04-03T21:30:13.692Z,99539.98
2019-04-03T21:36:19.854Z,99522.56
2019-04-03T21:42:26.988Z,99530.11
2019-04-03T21:48:33.366Z,99529.47
2019-04-03T21:54:39.264Z,99539.00
2019-04-03T22:01:22.176Z,99532.45
2019-04-03T22:07:29.031Z,99536.13
2019-04-03T22:13:35.105Z,99532.58
2019-04-03T22:19:41.095Z,99536.19
2019-04-03T22:25:46.809Z,99528.87
2019-04-03T22:31:54.411Z,99558.63
2019-04-03T22:38:00.490Z,99584.06
2019-04-03T22:44:06.629Z,99583.23
2019-04-03T22:50:12.685Z,99567.24
2019-04-03T22:56:18.758Z,99555.06
2019-04-03T23:02:24.546Z,99574.75
2019-04-03T23:08:30.523Z,99578.23
2019-04-03T23:14:38.198Z,99580.85
2019-04-03T23:20:44.564Z,99574.81
2019-04-03T23:26:50.951Z,99563.08
2019-04-03T23:32:56.682Z,99556.12
2019-04-03T23:39:02.613Z,99518.14
2019-04-03T23:45:09.258Z,99522.85
2019-04-03T23:51:22.946Z,99492.28
2019-04-03T23:57:22.597Z,99520.54
